createdAt,value
2019-01-29T00:00:45.005Z,7.97
2019-01-29T00:03:15.385Z,7.37
2019-01-29T00:05:45.709Z,11.90
2019-01-29T00:08:15.969Z,6.43
2019-01-29T00:10:46.253Z,5.33
2019-01-29T00:13:17.510Z,8.30
2019-01-29T00:15:47.770Z,9.00
2019-01-29T00:18:18.066Z,7.93
2019-01-29T00:20:48.321Z,5.73
2019-01-29T00:23:18.610Z,8.03
2019-01-29T00:25:48.864Z,7.13
2019-01-29T00:28:19.143Z,5.67
2019-01-29T00:30:49.401Z,4.53
2019-01-29T00:33:19.725Z,7.73
2019-01-29T00:35:49.977Z,8.40
2019-01-29T00:38:20.270Z,12.00
2019-01-29T00:40:50.524Z,11.77
2019-01-29T00:43:20.831Z,13.23
2019-01-29T00:45:52.088Z,7.93
2019-01-29T00:48:22.391Z,6.80
2019-01-29T00:50:52.637Z,17.20
2019-01-29T00:53:22.931Z,6.23
2019-01-29T00:55:53.218Z,7.33
2019-01-29T00:58:23.464Z,5.13
2019-01-29T01:00:54.717Z,5.23
2019-01-29T01:03:24.969Z,5.10
2019-01-29T01:05:56.221Z,4.53
2019-01-29T01:08:26.476Z,8.03
2019-01-29T01:10:56.776Z,4.80
2019-01-29T01:13:27.039Z,5.53
2019-01-29T01:15:57.315Z,4.67
2019-01-29T01:18:27.569Z,3.30
2019-01-29T01:20:57.858Z,3.33
2019-01-29T01:23:28.105Z,4.00
2019-01-29T01:25:58.381Z,2.80
2019-01-29T01:28:28.655Z,4.73
2019-01-29T01:30:58.949Z,4.47
2019-01-29T01:33:29.222Z,4.83
2019-01-29T01:35:59.508Z,3.30
2019-01-29T01:38:29.764Z,5.97
2019-01-29T01:41:00.070Z,3.57
2019-01-29T01:43:30.335Z,6.43
2019-01-29T01:46:00.668Z,10.03
2019-01-29T01:48:30.950Z,11.33
2019-01-29T01:51:01.238Z,4.33
2019-01-29T01:53:31.502Z,7.50
2019-01-29T01:56:01.795Z,8.13
2019-01-29T01:58:32.064Z,3.93
2019-01-29T02:01:02.355Z,4.37
2019-01-29T02:03:32.604Z,6.43
2019-01-29T02:06:02.930Z,8.07
2019-01-29T02:08:33.198Z,5.80
2019-01-29T02:11:03.480Z,5.27
2019-01-29T02:13:33.746Z,9.37
2019-01-29T02:16:04.012Z,4.30
2019-01-29T02:18:34.303Z,7.07
2019-01-29T02:21:04.557Z,5.60
2019-01-29T02:23:34.864Z,4.63
2019-01-29T02:26:05.180Z,5.30
2019-01-29T02:28:35.475Z,3.00
2019-01-29T02:31:05.732Z,7.47
2019-01-29T02:33:36.033Z,4.10
2019-01-29T02:36:06.300Z,5.00
2019-01-29T02:38:36.596Z,5.20
2019-01-29T02:41:06.870Z,3.37
2019-01-29T02:43:37.150Z,6.60
2019-01-29T02:46:07.461Z,4.27
2019-01-29T02:48:37.736Z,3.67
2019-01-29T02:51:08.009Z,7.50
2019-01-29T02:53:38.291Z,2.63
2019-01-29T02:56:08.590Z,2.73
2019-01-29T02:58:38.888Z,4.63
2019-01-29T03:01:09.157Z,5.43
2019-01-29T03:03:39.412Z,4.33
2019-01-29T03:06:09.947Z,2.27
2019-01-29T03:08:40.245Z,3.13
2019-01-29T03:11:10.506Z,4.23
2019-01-29T03:13:40.792Z,5.43
2019-01-29T03:16:11.068Z,5.73
2019-01-29T03:18:41.353Z,6.23
2019-01-29T03:21:11.621Z,8.13
2019-01-29T03:23:41.926Z,7.10
2019-01-29T03:26:12.169Z,4.50
2019-01-29T03:28:43.442Z,5.17
2019-01-29T03:31:13.712Z,2.73
2019-01-29T03:33:44.008Z,3.37
2019-01-29T03:36:14.281Z,2.23
2019-01-29T03:38:44.587Z,2.93
2019-01-29T03:41:14.847Z,5.43
2019-01-29T03:43:45.141Z,3.07
2019-01-29T03:46:15.405Z,5.13
2019-01-29T03:48:45.679Z,2.27
2019-01-29T03:51:15.945Z,2.47
2019-01-29T03:53:46.223Z,4.70
2019-01-29T03:56:17.335Z,10.43
2019-01-29T03:58:50.114Z,5.57
2019-01-29T04:01:24.655Z,7.10
2019-01-29T04:03:56.951Z,5.17
2019-01-29T04:06:28.155Z,9.13
2019-01-29T04:09:08.824Z,4.13
2019-01-29T04:11:43.042Z,6.40
2019-01-29T04:14:17.728Z,5.03
2019-01-29T04:16:49.262Z,9.87
2019-01-29T04:19:21.927Z,8.73
2019-01-29T04:21:55.594Z,8.37
2019-01-29T04:24:28.011Z,7.87
2019-01-29T04:27:00.277Z,5.10
2019-01-29T04:29:32.262Z,3.63
2019-01-29T04:32:02.521Z,7.63
2019-01-29T04:34:32.863Z,7.13
2019-01-29T04:37:03.134Z,4.07
2019-01-29T04:39:33.456Z,4.90
2019-01-29T04:42:03.699Z,5.27
2019-01-29T04:44:33.987Z,3.53
2019-01-29T04:47:04.282Z,6.83
2019-01-29T04:49:34.568Z,6.93
2019-01-29T04:52:04.845Z,5.00
2019-01-29T04:54:35.129Z,4.27
2019-01-29T04:57:05.612Z,5.10
2019-01-29T04:59:35.905Z,8.13
2019-01-29T05:02:06.214Z,9.93
2019-01-29T05:04:36.515Z,4.57
2019-01-29T05:07:06.778Z,3.77
2019-01-29T05:09:37.058Z,5.50
2019-01-29T05:12:07.319Z,5.93
2019-01-29T05:14:37.637Z,7.20
2019-01-29T05:17:07.909Z,8.60
2019-01-29T05:19:38.216Z,5.33
2019-01-29T05:22:08.477Z,6.37
2019-01-29T05:24:38.743Z,10.03
2019-01-29T05:27:09.019Z,5.60
2019-01-29T05:29:39.814Z,11.50
2019-01-29T05:32:10.214Z,9.73
2019-01-29T05:34:40.495Z,8.17
2019-01-29T05:37:11.095Z,8.57
2019-01-29T05:39:46.532Z,11.63
2019-01-29T05:42:16.927Z,12.33
2019-01-29T05:44:49.563Z,7.47
2019-01-29T05:47:22.837Z,9.07
2019-01-29T05:49:53.450Z,13.47
2019-01-29T05:52:23.993Z,8.60
2019-01-29T05:55:00.476Z,8.23
2019-01-29T05:57:31.940Z,6.87
2019-01-29T06:00:04.972Z,7.00
2019-01-29T06:02:39.159Z,7.30
2019-01-29T06:05:09.932Z,5.00
2019-01-29T06:07:40.402Z,15.10
2019-01-29T06:10:11.128Z,22.20
2019-01-29T06:12:41.457Z,11.10
2019-01-29T06:15:14.311Z,9.57
2019-01-29T06:17:44.625Z,10.90
2019-01-29T06:20:18.654Z,34.40
2019-01-29T06:22:49.152Z,19.43
2019-01-29T06:25:19.410Z,7.90
2019-01-29T06:27:49.797Z,9.97
2019-01-29T06:30:20.927Z,13.10
2019-01-29T06:32:51.300Z,8.00
2019-01-29T06:35:21.585Z,6.10
2019-01-29T06:37:51.992Z,5.83
2019-01-29T06:40:24.149Z,7.87
2019-01-29T06:42:54.558Z,6.57
2019-01-29T06:45:25.260Z,7.40
2019-01-29T06:47:55.663Z,8.43
2019-01-29T06:50:26.843Z,8.20
2019-01-29T06:52:57.330Z,6.63
2019-01-29T06:55:27.625Z,9.47
2019-01-29T06:57:57.938Z,10.03
2019-01-29T07:00:29.809Z,8.00
2019-01-29T07:03:01.395Z,11.70
2019-01-29T07:05:31.719Z,7.23
2019-01-29T07:08:02.368Z,9.83
2019-01-29T07:10:32.698Z,6.93
2019-01-29T07:13:02.970Z,9.73
2019-01-29T07:16:08.059Z,6.23
2019-01-29T07:18:57.300Z,6.37
2019-01-29T07:21:27.578Z,7.63
2019-01-29T07:23:57.868Z,7.03
2019-01-29T07:26:28.185Z,10.53
2019-01-29T07:29:01.903Z,7.03
2019-01-29T07:31:32.457Z,6.73
2019-01-29T07:34:02.754Z,7.07
2019-01-29T07:36:33.178Z,6.03
2019-01-29T07:39:05.696Z,19.87
2019-01-29T07:41:36.363Z,23.87
2019-01-29T07:44:07.142Z,20.40
2019-01-29T07:46:38.851Z,16.50
2019-01-29T07:49:09.119Z,12.93
2019-01-29T07:51:40.491Z,7.80
2019-01-29T07:54:11.622Z,7.23
2019-01-29T07:56:41.945Z,6.37
2019-01-29T07:59:12.306Z,6.17
2019-01-29T08:01:42.595Z,7.10
2019-01-29T08:04:13.022Z,7.00
2019-01-29T08:06:43.417Z,3.50
2019-01-29T08:09:13.663Z,7.70
2019-01-29T08:11:44.157Z,6.13
2019-01-29T08:14:14.898Z,7.37
2019-01-29T08:16:45.581Z,4.43
2019-01-29T08:19:15.970Z,5.20
2019-01-29T08:21:48.353Z,7.03
2019-01-29T08:24:19.994Z,5.23
2019-01-29T08:26:50.588Z,7.90
2019-01-29T08:29:21.343Z,6.90
2019-01-29T08:31:51.999Z,5.67
2019-01-29T08:34:22.329Z,5.60
2019-01-29T08:36:52.629Z,4.97
2019-01-29T08:39:22.925Z,5.53
2019-01-29T08:41:53.215Z,4.63
2019-01-29T08:44:23.525Z,8.30
2019-01-29T08:46:53.781Z,9.33
2019-01-29T08:49:24.077Z,7.70
2019-01-29T08:51:54.337Z,11.07
2019-01-29T08:54:24.775Z,5.17
2019-01-29T08:56:55.471Z,6.27
2019-01-29T08:59:26.211Z,10.40
2019-01-29T09:01:56.831Z,7.27
2019-01-29T09:04:27.462Z,12.10
2019-01-29T09:06:58.061Z,7.63
2019-01-29T09:09:28.680Z,5.77
2019-01-29T09:11:58.937Z,7.77
2019-01-29T09:14:30.484Z,8.43
2019-01-29T09:17:00.969Z,7.60
2019-01-29T09:19:32.516Z,7.93
2019-01-29T09:22:02.829Z,7.17
2019-01-29T09:24:34.349Z,11.63
2019-01-29T09:27:05.575Z,8.00
2019-01-29T09:29:36.052Z,8.20
2019-01-29T09:32:09.050Z,7.33
2019-01-29T09:34:40.800Z,7.83
2019-01-29T09:37:11.616Z,8.23
2019-01-29T09:39:42.540Z,5.43
2019-01-29T09:42:12.887Z,5.77
2019-01-29T09:44:43.326Z,6.80
2019-01-29T09:47:13.647Z,7.47
2019-01-29T09:49:44.008Z,7.93
2019-01-29T09:52:14.285Z,9.40
2019-01-29T09:54:44.561Z,7.40
2019-01-29T09:57:14.856Z,7.07
2019-01-29T09:59:45.370Z,7.43
2019-01-29T10:02:15.884Z,7.07
2019-01-29T10:04:46.425Z,6.80
2019-01-29T10:07:16.786Z,7.87
2019-01-29T10:09:47.066Z,9.77
2019-01-29T10:12:17.365Z,12.00
2019-01-29T10:14:49.222Z,11.27
2019-01-29T10:17:22.482Z,8.93
2019-01-29T10:20:02.510Z,8.63
2019-01-29T10:22:27.968Z,7.50
2019-01-29T10:24:59.277Z,7.43
2019-01-29T10:27:30.161Z,8.40
2019-01-29T10:30:02.109Z,7.97
2019-01-29T10:32:35.007Z,7.33
2019-01-29T10:35:07.382Z,7.60
2019-01-29T10:37:39.768Z,8.73
2019-01-29T10:40:15.042Z,12.00
2019-01-29T10:42:47.787Z,11.83
2019-01-29T10:45:20.084Z,13.10
2019-01-29T10:47:50.710Z,7.30
2019-01-29T10:50:23.251Z,11.50
2019-01-29T10:52:56.239Z,11.60
2019-01-29T10:55:28.589Z,12.93
2019-01-29T10:58:00.976Z,8.17
2019-01-29T11:00:38.079Z,6.90
2019-01-29T11:03:10.512Z,8.97
2019-01-29T11:05:41.391Z,8.70
2019-01-29T11:08:12.774Z,9.37
2019-01-29T11:10:44.792Z,8.70
2019-01-29T11:13:16.002Z,15.23
2019-01-29T11:15:47.086Z,9.37
2019-01-29T11:18:18.399Z,7.70
2019-01-29T11:20:49.950Z,9.93
2019-01-29T11:23:22.487Z,7.93
2019-01-29T11:25:56.063Z,6.90
2019-01-29T11:28:25.990Z,8.67
2019-01-29T11:30:58.016Z,9.43
2019-01-29T11:33:31.880Z,12.27
2019-01-29T11:36:03.534Z,12.17
2019-01-29T11:38:35.037Z,13.43
2019-01-29T11:41:06.338Z,10.40
2019-01-29T11:43:37.566Z,11.67
2019-01-29T11:46:09.549Z,11.97
2019-01-29T11:48:41.234Z,10.03
2019-01-29T11:51:13.058Z,8.47
2019-01-29T11:53:44.725Z,9.27
2019-01-29T11:56:19.042Z,16.37
2019-01-29T11:58:51.456Z,12.93
2019-01-29T12:01:25.812Z,11.80
2019-01-29T12:03:58.130Z,16.23
2019-01-29T12:06:30.635Z,11.27
2019-01-29T12:09:01.659Z,12.63
2019-01-29T12:11:33.065Z,14.97
2019-01-29T12:14:04.708Z,19.53
2019-01-29T12:16:36.608Z,16.53
2019-01-29T12:19:08.120Z,17.63
2019-01-29T12:21:39.466Z,13.77
2019-01-29T12:24:11.276Z,10.90
2019-01-29T12:26:42.646Z,11.87
2019-01-29T12:29:14.803Z,12.23
2019-01-29T12:31:45.833Z,13.67
2019-01-29T12:34:16.641Z,11.57
2019-01-29T12:36:51.387Z,18.23
2019-01-29T12:39:23.815Z,12.57
2019-01-29T12:41:55.795Z,14.13
2019-01-29T12:44:26.643Z,13.57
2019-01-29T12:46:58.420Z,9.00
2019-01-29T12:49:30.932Z,18.63
2019-01-29T12:52:19.962Z,15.77
2019-01-29T12:54:51.687Z,13.97
2019-01-29T12:57:22.617Z,10.53
2019-01-29T12:59:56.047Z,13.07
2019-01-29T13:02:27.046Z,13.10
2019-01-29T13:04:58.727Z,11.67
2019-01-29T13:07:30.682Z,10.53
2019-01-29T13:10:01.919Z,11.17
2019-01-29T13:12:38.651Z,8.67
2019-01-29T13:15:13.374Z,13.63
2019-01-29T13:17:44.138Z,13.60
2019-01-29T13:20:20.072Z,15.33
2019-01-29T13:22:55.339Z,8.37
2019-01-29T13:25:29.732Z,14.07
2019-01-29T13:28:02.722Z,10.60
2019-01-29T13:30:46.577Z,12.87
2019-01-29T13:33:17.914Z,14.50
2019-01-29T13:35:48.684Z,21.13
2019-01-29T13:38:18.950Z,15.83
2019-01-29T13:41:00.843Z,13.00
2019-01-29T13:43:48.790Z,10.37
2019-01-29T13:46:29.871Z,10.80
2019-01-29T13:49:04.188Z,9.67
2019-01-29T13:51:39.303Z,12.00
2019-01-29T13:54:15.911Z,12.37
2019-01-29T13:56:46.940Z,15.00
2019-01-29T13:59:20.403Z,10.00
2019-01-29T14:01:50.725Z,9.53
2019-01-29T14:04:22.879Z,11.07
2019-01-29T14:06:57.830Z,9.43
2019-01-29T14:09:29.736Z,8.00
2019-01-29T14:12:00.495Z,10.70
2019-01-29T14:14:33.283Z,9.47
2019-01-29T14:17:03.694Z,8.57
2019-01-29T14:19:34.411Z,9.77
2019-01-29T14:22:05.812Z,8.53
2019-01-29T14:24:36.630Z,12.03
2019-01-29T14:27:07.222Z,10.87
2019-01-29T14:29:40.827Z,12.23
2019-01-29T14:32:15.522Z,11.53
2019-01-29T14:34:45.766Z,7.70
2019-01-29T14:37:18.422Z,10.53
2019-01-29T14:40:21.116Z,11.27
2019-01-29T14:42:51.819Z,8.80
2019-01-29T14:45:25.119Z,6.63
2019-01-29T14:47:55.461Z,9.60
2019-01-29T14:50:26.150Z,6.50
2019-01-29T14:52:57.402Z,7.20
2019-01-29T14:55:28.199Z,4.67
2019-01-29T14:57:58.728Z,7.33
2019-01-29T15:00:30.040Z,8.13
2019-01-29T15:03:00.729Z,7.70
2019-01-29T15:05:31.160Z,9.97
2019-01-29T15:08:01.593Z,5.83
2019-01-29T15:10:34.344Z,4.93
2019-01-29T15:13:04.963Z,6.00
2019-01-29T15:15:38.342Z,6.57
2019-01-29T15:18:18.429Z,6.07
2019-01-29T15:20:48.741Z,6.87
2019-01-29T15:23:19.211Z,6.20
2019-01-29T15:25:49.716Z,4.20
2019-01-29T15:28:23.455Z,5.50
2019-01-29T15:30:53.795Z,5.73
2019-01-29T15:33:24.093Z,4.13
2019-01-29T15:35:54.391Z,5.63
2019-01-29T15:38:24.675Z,3.80
2019-01-29T15:40:55.317Z,5.47
2019-01-29T15:43:25.606Z,2.00
2019-01-29T15:45:56.513Z,2.33
2019-01-29T15:48:28.055Z,6.93
2019-01-29T15:50:58.303Z,3.93
2019-01-29T15:53:29.494Z,1.97
2019-01-29T15:56:00.616Z,3.57
2019-01-29T15:58:30.985Z,3.37
2019-01-29T16:01:01.398Z,4.97
2019-01-29T16:03:31.996Z,5.67
2019-01-29T16:06:02.641Z,5.17
2019-01-29T16:08:33.037Z,8.47
2019-01-29T16:11:03.515Z,3.30
2019-01-29T16:13:35.362Z,3.80
2019-01-29T16:16:07.753Z,3.07
2019-01-29T16:18:39.613Z,3.23
2019-01-29T16:21:09.941Z,4.17
2019-01-29T16:23:40.237Z,5.37
2019-01-29T16:26:10.641Z,6.33
2019-01-29T16:28:41.187Z,3.27
2019-01-29T16:31:11.537Z,4.03
2019-01-29T16:33:41.816Z,3.10
2019-01-29T16:36:12.098Z,3.80
2019-01-29T16:38:42.358Z,3.03
2019-01-29T16:41:13.196Z,4.77
2019-01-29T16:43:43.837Z,5.60
2019-01-29T16:46:15.321Z,2.70
2019-01-29T16:48:45.887Z,7.83
2019-01-29T16:51:16.219Z,5.43
2019-01-29T16:53:46.997Z,4.57
2019-01-29T16:56:17.885Z,3.73
2019-01-29T16:58:48.133Z,3.97
2019-01-29T17:01:18.649Z,4.90
2019-01-29T17:03:49.443Z,7.50
2019-01-29T17:06:19.989Z,5.37
2019-01-29T17:08:50.279Z,6.97
2019-01-29T17:11:20.722Z,7.53
2019-01-29T17:13:51.306Z,6.17
2019-01-29T17:16:21.642Z,8.37
2019-01-29T17:18:51.979Z,13.00
2019-01-29T17:21:22.591Z,19.90
2019-01-29T17:23:52.936Z,12.37
2019-01-29T17:26:23.347Z,11.43
2019-01-29T17:28:53.749Z,14.50
2019-01-29T17:31:24.292Z,12.57
2019-01-29T17:33:54.574Z,11.03
2019-01-29T17:36:24.862Z,12.63
2019-01-29T17:38:55.201Z,11.37
2019-01-29T17:41:25.945Z,10.17
2019-01-29T17:43:56.271Z,10.30
2019-01-29T17:46:26.557Z,11.03
2019-01-29T17:48:57.095Z,11.10
2019-01-29T17:51:28.321Z,8.70
2019-01-29T17:53:58.702Z,10.50
2019-01-29T17:56:29.007Z,12.53
2019-01-29T17:58:59.296Z,15.37
2019-01-29T18:01:29.575Z,16.43
2019-01-29T18:03:59.905Z,12.43
2019-01-29T18:06:31.890Z,13.30
2019-01-29T18:09:06.520Z,13.33
2019-01-29T18:11:37.626Z,13.07
2019-01-29T18:14:08.495Z,11.27
2019-01-29T18:16:38.750Z,12.33
2019-01-29T18:19:09.199Z,11.87
2019-01-29T18:21:39.977Z,16.17
2019-01-29T18:24:14.065Z,12.33
2019-01-29T18:26:44.318Z,12.33
2019-01-29T18:29:14.689Z,14.80
2019-01-29T18:31:44.945Z,13.77
2019-01-29T18:34:15.654Z,15.27
2019-01-29T18:36:46.006Z,16.57
2019-01-29T18:39:16.280Z,12.93
2019-01-29T18:41:46.537Z,15.13
2019-01-29T18:44:16.843Z,13.90
2019-01-29T18:46:47.115Z,14.87
2019-01-29T18:49:17.388Z,14.73
2019-01-29T18:51:47.838Z,13.83
2019-01-29T18:54:18.479Z,12.63
2019-01-29T18:56:48.907Z,16.03
2019-01-29T18:59:19.241Z,13.40
2019-01-29T19:01:49.793Z,12.10
2019-01-29T19:04:20.095Z,12.03
2019-01-29T19:06:50.690Z,12.47
2019-01-29T19:09:25.288Z,14.07
2019-01-29T19:11:57.063Z,10.77
2019-01-29T19:14:27.393Z,10.87
2019-01-29T19:16:57.683Z,13.70
2019-01-29T19:19:28.278Z,11.03
2019-01-29T19:21:58.556Z,11.37
2019-01-29T19:24:28.980Z,14.60
2019-01-29T19:26:59.327Z,12.90
2019-01-29T19:29:29.665Z,14.03
2019-01-29T19:32:00.055Z,16.00
2019-01-29T19:34:33.631Z,17.07
2019-01-29T19:37:03.999Z,10.93
2019-01-29T19:39:35.060Z,16.37
2019-01-29T19:42:12.023Z,12.30
2019-01-29T19:44:52.882Z,13.60
2019-01-29T19:47:24.195Z,11.03
2019-01-29T19:49:57.748Z,15.27
2019-01-29T19:52:32.525Z,14.93
2019-01-29T19:55:07.742Z,12.20
2019-01-29T19:57:39.924Z,13.57
2019-01-29T20:00:23.560Z,12.73
2019-01-29T20:02:56.899Z,12.53
2019-01-29T20:05:26.337Z,13.10
2019-01-29T20:07:58.600Z,11.90
2019-01-29T20:10:32.829Z,11.83
2019-01-29T20:13:04.473Z,11.03
2019-01-29T20:15:37.678Z,13.30
2019-01-29T20:18:10.290Z,10.57
2019-01-29T20:20:42.700Z,13.20
2019-01-29T20:23:14.690Z,10.43
2019-01-29T20:25:52.487Z,16.43
2019-01-29T20:28:27.596Z,11.13
2019-01-29T20:30:59.287Z,11.47
2019-01-29T20:33:40.256Z,11.43
2019-01-29T20:36:11.943Z,13.70
2019-01-29T20:38:43.825Z,11.33
2019-01-29T20:41:16.967Z,11.47
2019-01-29T20:43:48.422Z,10.27
2019-01-29T20:46:22.619Z,10.20
2019-01-29T20:48:56.530Z,10.10
2019-01-29T20:51:27.228Z,9.93
2019-01-29T20:54:01.157Z,10.50
2019-01-29T20:56:34.530Z,10.10
2019-01-29T20:59:06.947Z,10.67
2019-01-29T21:01:38.643Z,12.30
2019-01-29T21:04:11.191Z,12.97
2019-01-29T21:06:43.117Z,15.43
2019-01-29T21:09:17.350Z,14.87
2019-01-29T21:11:49.954Z,13.30
2019-01-29T21:14:22.491Z,16.03
2019-01-29T21:16:54.187Z,9.90
2019-01-29T21:19:25.202Z,12.43
2019-01-29T21:22:02.736Z,13.80
2019-01-29T21:24:33.320Z,10.37
2019-01-29T21:27:03.736Z,11.83
2019-01-29T21:29:34.635Z,9.63
2019-01-29T21:32:06.749Z,9.43
2019-01-29T21:34:50.198Z,11.80
2019-01-29T21:37:24.956Z,12.87
2019-01-29T21:39:57.450Z,11.17
2019-01-29T21:42:27.643Z,11.37
2019-01-29T21:44:58.011Z,13.23
2019-01-29T21:47:28.469Z,11.47
2019-01-29T21:49:58.809Z,11.97
2019-01-29T21:52:29.148Z,13.73
2019-01-29T21:54:59.548Z,10.60
